Time,TemperatureF,DewpointF,PressureIn,WindDirection,WindDirectionDegrees,WindSpeedMPH,WindSpeedGustMPH,Humidity,HourlyPrecipIn,Conditions,Clouds,dailyrainin,SoftwareType,DateUTC
2013-02-27 00:00:00,45.8,44.2,29.56,SW,232,0.0,0.0,94,0.00,,,0.76,Wunderground v.1.13,2013-02-27 05:00:00,
2013-02-27 00:02:00,45.7,44.1,29.56,SW,232,0.0,0.0,94,0.00,,,0.00,Wunderground v.1.13,2013-02-27 05:02:00,
2013-02-27 00:10:00,45.4,43.8,29.56,SW,232,0.0,0.0,94,0.00,,,0.00,Wunderground v.1.13,2013-02-27 05:10:00,
2013-02-27 00:12:00,45.4,43.8,29.56,SW,232,0.0,0.0,94,0.00,,,0.00,Wunderground v.1.13,2013-02-27 05:12:00,
2013-02-27 00:18:00,45.1,43.5,29.57,SW,232,0.0,0.0,94,0.00,,,0.00,Wunderground v.1.13,2013-02-27 05:18:00,
2013-02-27 00:20:00,45.1,43.5,29.57,WSW,241,0.0,0.0,94,0.00,,,0.00,Wunderground v.1.13,2013-02-27 05:20:00,
2013-02-27 00:26:00,44.9,43.3,29.57,WSW,241,0.0,0.0,94,0.00,,,0.00,Wunderground v.1.13,2013-02-27 05:26:00,
2013-02-27 00:32:00,44.8,43.5,29.56,WSW,241,0.0,0.0,95,0.00,,,0.00,Wunderground v.1.13,2013-02-27 05:32:00,
2013-02-27 00:38:00,44.9,43.6,29.56,WSW,253,0.0,1.0,95,0.00,,,0.00,Wunderground v.1.13,2013-02-27 05:38:00,
2013-02-27 00:44:00,45.1,43.8,29.56,WSW,254,1.0,3.0,95,0.00,,,0.00,Wunderground v.1.13,2013-02-27 05:44:00,
2013-02-27 00:50:00,45.1,44.0,29.57,WSW,257,0.0,1.0,96,0.00,,,0.00,Wunderground v.1.13,2013-02-27 05:50:00,
2013-02-27 00:56:00,45.2,44.1,29.57,WSW,257,0.0,0.0,96,0.00,,,0.00,Wunderground v.1.13,2013-02-27 05:56:00,
2013-02-27 01:02:00,45.2,44.1,29.57,WSW,257,0.0,0.0,96,0.00,,,0.00,Wunderground v.1.13,2013-02-27 06:02:00,
2013-02-27 01:10:00,45.2,44.1,29.57,WSW,257,0.0,0.0,96,0.00,,,0.00,Wunderground v.1.13,2013-02-27 06:10:00,
2013-02-27 01:16:00,45.2,44.1,29.57,WSW,257,0.0,0.0,96,0.00,,,0.00,Wunderground v.1.13,2013-02-27 06:16:00,
2013-02-27 01:24:00,45.1,44.0,29.57,WSW,257,0.0,1.0,96,0.00,,,0.00,Wunderground v.1.13,2013-02-27 06:24:00,
2013-02-27 01:30:00,45.1,44.0,29.58,WSW,256,0.0,0.0,96,0.00,,,0.00,Wunderground v.1.13,2013-02-27 06:30:00,
2013-02-27 01:36:00,45.1,44.0,29.58,WSW,256,0.0,0.0,96,0.00,,,0.00,Wunderground v.1.13,2013-02-27 06:36:00,
2013-02-27 01:42:00,44.9,43.8,29.58,NW,325,0.0,0.0,96,0.00,,,0.00,Wunderground v.1.13,2013-02-27 06:42:00,
2013-02-27 01:48:00,44.9,43.8,29.57,NW,325,0.0,0.0,96,0.00,,,0.00,Wunderground v.1.13,2013-02-27 06:48:00,
2013-02-27 01:54:00,44.8,43.7,29.57,NW,325,0.0,0.0,96,0.00,,,0.00,Wunderground v.1.13,2013-02-27 06:54:00,
2013-02-27 02:00:00,44.8,43.7,29.57,WNW,294,0.0,1.0,96,0.00,,,0.00,Wunderground v.1.13,2013-02-27 07:00:00,
2013-02-27 02:06:00,44.8,43.7,29.57,WNW,287,0.0,0.0,96,0.00,,,0.00,Wunderground v.1.13,2013-02-27 07:06:00,
2013-02-27 02:12:00,44.8,43.7,29.57,WNW,287,0.0,0.0,96,0.00,,,0.00,Wunderground v.1.13,2013-02-27 07:12:00,
2013-02-27 02:18:00,44.6,43.5,29.58,WNW,287,0.0,1.0,96,0.00,,,0.00,Wunderground v.1.13,2013-02-27 07:18:00,
2013-02-27 02:24:00,44.6,43.5,29.58,SSW,203,0.0,0.0,96,0.00,,,0.00,Wunderground v.1.13,2013-02-27 07:24:00,
2013-02-27 02:30:00,44.6,43.5,29.58,WNW,282,1.0,1.0,96,0.00,,,0.00,Wunderground v.1.13,2013-02-27 07:30:00,
2013-02-27 02:36:00,44.5,43.4,29.58,WNW,282,1.0,2.0,96,0.00,,,0.00,Wunderground v.1.13,2013-02-27 07:36:00,
2013-02-27 02:42:00,44.5,43.4,29.58,WNW,282,0.0,0.0,96,0.00,,,0.00,Wunderground v.1.13,2013-02-27 07:42:00,
2013-02-27 02:48:00,44.5,43.4,29.58,WNW,282,0.0,0.0,96,0.00,,,0.00,Wunderground v.1.13,2013-02-27 07:48:00,
2013-02-27 02:54:00,44.5,43.4,29.58,West,281,0.0,0.0,96,0.00,,,0.00,Wunderground v.1.13,2013-02-27 07:54:00,
2013-02-27 03:00:00,44.5,43.4,29.58,NW,318,0.0,0.0,96,0.00,,,0.00,Wunderground v.1.13,2013-02-27 08:00:00,
2013-02-27 03:06:00,44.3,43.2,29.58,West,260,1.0,1.0,96,0.00,,,0.00,Wunderground v.1.13,2013-02-27 08:06:00,
2013-02-27 03:12:00,44.3,43.2,29.58,West,260,0.0,0.0,96,0.00,,,0.00,Wunderground v.1.13,2013-02-27 08:12:00,
2013-02-27 03:18:00,44.2,43.1,29.56,West,260,0.0,0.0,96,0.00,,,0.00,Wunderground v.1.13,2013-02-27 08:18:00,
2013-02-27 03:24:00,44.2,43.1,29.56,WNW,284,0.0,3.0,96,0.00,,,0.00,Wunderground v.1.13,2013-02-27 08:24:00,
2013-02-27 03:30:00,44.2,43.1,29.56,WNW,282,0.0,0.0,96,0.00,,,0.00,Wunderground v.1.13,2013-02-27 08:30:00,
2013-02-27 03:36:00,44.2,43.1,29.55,WNW,282,0.0,0.0,96,0.00,,,0.00,Wunderground v.1.13,2013-02-27 08:36:00,
2013-02-27 03:42:00,44.1,43.0,29.55,WNW,282,0.0,0.0,96,0.00,,,0.00,Wunderground v.1.13,2013-02-27 08:42:00,
2013-02-27 03:48:00,44.1,43.0,29.56,WNW,288,1.0,5.0,96,0.00,,,0.00,Wunderground v.1.13,2013-02-27 08:48:00,
2013-02-27 03:54:00,44.1,43.0,29.56,SW,232,1.0,2.0,96,0.00,,,0.00,Wunderground v.1.13,2013-02-27 08:54:00,
2013-02-27 04:00:00,43.9,42.6,29.57,West,281,0.0,3.0,95,0.00,,,0.00,Wunderground v.1.13,2013-02-27 09:00:00,
2013-02-27 04:06:00,43.9,42.6,29.57,WSW,240,1.0,2.0,95,0.00,,,0.00,Wunderground v.1.13,2013-02-27 09:06:00,
2013-02-27 04:12:00,43.8,42.5,29.57,SW,217,1.0,1.0,95,0.00,,,0.00,Wunderground v.1.13,2013-02-27 09:12:00,
2013-02-27 04:18:00,43.8,42.5,29.58,SW,230,0.0,0.0,95,0.00,,,0.00,Wunderground v.1.13,2013-02-27 09:18:00,
2013-02-27 04:24:00,43.8,42.5,29.58,West,261,1.0,2.0,95,0.00,,,0.00,Wunderground v.1.13,2013-02-27 09:24:00,
2013-02-27 04:30:00,43.8,42.5,29.58,WSW,253,1.0,2.0,95,0.00,,,0.00,Wunderground v.1.13,2013-02-27 09:30:00,
2013-02-27 04:36:00,43.8,42.5,29.59,WNW,284,0.0,0.0,95,0.00,,,0.00,Wunderground v.1.13,2013-02-27 09:36:00,
2013-02-27 04:42:00,43.8,42.5,29.59,West,270,1.0,1.0,95,0.00,,,0.00,Wunderground v.1.13,2013-02-27 09:42:00,
2013-02-27 04:48:00,43.6,42.0,29.59,NW,309,1.0,1.0,94,0.00,,,0.00,Wunderground v.1.13,2013-02-27 09:48:00,
2013-02-27 04:54:00,43.6,41.7,29.59,West,270,2.0,2.0,93,0.00,,,0.00,Wunderground v.1.13,2013-02-27 09:54:00,
2013-02-27 05:00:00,43.6,41.7,29.59,North,0,2.0,2.0,93,0.00,,,0.00,Wunderground v.1.13,2013-02-27 10:00:00,
2013-02-27 05:06:00,43.5,41.3,29.60,NNW,336,1.0,1.0,92,0.00,,,0.00,Wunderground v.1.13,2013-02-27 10:06:00,
2013-02-27 05:12:00,43.5,41.3,29.60,West,264,1.0,1.0,92,0.00,,,0.00,Wunderground v.1.13,2013-02-27 10:12:00,
2013-02-27 05:18:00,43.5,41.0,29.61,NNW,347,0.0,0.0,91,0.00,,,0.00,Wunderground v.1.13,2013-02-27 10:18:00,
2013-02-27 05:24:00,43.5,41.0,29.61,NNW,346,0.0,0.0,91,0.00,,,0.00,Wunderground v.1.13,2013-02-27 10:24:00,
2013-02-27 05:30:00,43.5,41.0,29.61,NNW,346,0.0,0.0,91,0.00,,,0.00,Wunderground v.1.13,2013-02-27 10:30:00,
2013-02-27 05:36:00,43.3,40.8,29.61,NW,319,0.0,0.0,91,0.00,,,0.00,Wunderground v.1.13,2013-02-27 10:36:00,
2013-02-27 05:42:00,43.3,40.8,29.61,WSW,240,1.0,4.0,91,0.00,,,0.00,Wunderground v.1.13,2013-02-27 10:42:00,
2013-02-27 05:48:00,43.3,40.6,29.62,WSW,256,1.0,1.0,90,0.00,,,0.00,Wunderground v.1.13,2013-02-27 10:48:00,
2013-02-27 05:54:00,43.2,40.5,29.62,WNW,292,1.0,1.0,90,0.00,,,0.00,Wunderground v.1.13,2013-02-27 10:54:00,
2013-02-27 06:00:00,43.2,40.5,29.62,WNW,292,1.0,1.0,90,0.00,,,0.00,Wunderground v.1.13,2013-02-27 11:00:00,
2013-02-27 06:06:00,43.2,40.5,29.62,WNW,292,0.0,0.0,90,0.00,,,0.00,Wunderground v.1.13,2013-02-27 11:06:00,
2013-02-27 06:12:00,43.2,40.5,29.62,WNW,292,0.0,0.0,90,0.00,,,0.00,Wunderground v.1.13,2013-02-27 11:12:00,
2013-02-27 06:18:00,43.1,40.4,29.63,WSW,256,1.0,1.0,90,0.00,,,0.00,Wunderground v.1.13,2013-02-27 11:18:00,
2013-02-27 06:24:00,43.1,40.4,29.63,WSW,256,1.0,1.0,90,0.00,,,0.00,Wunderground v.1.13,2013-02-27 11:24:00,
2013-02-27 06:30:00,43.1,40.4,29.63,NNW,330,0.0,0.0,90,0.00,,,0.00,Wunderground v.1.13,2013-02-27 11:30:00,
2013-02-27 06:36:00,43.1,40.4,29.63,NNW,337,0.0,6.0,90,0.00,,,0.00,Wunderground v.1.13,2013-02-27 11:36:00,
2013-02-27 06:42:00,42.9,40.2,29.63,WNW,302,1.0,2.0,90,0.00,,,0.00,Wunderground v.1.13,2013-02-27 11:42:00,
2013-02-27 06:48:00,42.9,40.2,29.63,WNW,302,1.0,1.0,90,0.00,,,0.00,Wunderground v.1.13,2013-02-27 11:48:00,
2013-02-27 06:54:00,42.9,40.2,29.63,West,275,0.0,0.0,90,0.00,,,0.00,Wunderground v.1.13,2013-02-27 11:54:00,
2013-02-27 07:00:00,42.8,40.1,29.63,WSW,256,0.0,0.0,90,0.00,,,0.00,Wunderground v.1.13,2013-02-27 12:00:00,
2013-02-27 07:06:00,42.8,40.1,29.64,WSW,256,0.0,0.0,90,0.00,,,0.00,Wunderground v.1.13,2013-02-27 12:06:00,
2013-02-27 07:12:00,42.8,40.1,29.64,WSW,257,0.0,0.0,90,0.00,,,0.00,Wunderground v.1.13,2013-02-27 12:12:00,
2013-02-27 07:18:00,42.6,39.9,29.66,West,260,0.0,3.0,90,0.00,,,0.00,Wunderground v.1.13,2013-02-27 12:18:00,
2013-02-27 07:24:00,42.6,39.9,29.66,West,260,0.0,0.0,90,0.00,,,0.00,Wunderground v.1.13,2013-02-27 12:24:00,
2013-02-27 07:30:00,42.5,39.8,29.66,West,260,0.0,2.0,90,0.00,,,0.00,Wunderground v.1.13,2013-02-27 12:30:00,
2013-02-27 07:36:00,42.5,39.8,29.66,West,260,0.0,0.0,90,0.00,,,0.00,Wunderground v.1.13,2013-02-27 12:36:00,
2013-02-27 07:42:00,42.5,40.1,29.66,West,260,0.0,0.0,91,0.00,,,0.00,Wunderground v.1.13,2013-02-27 12:42:00,
2013-02-27 07:48:00,42.5,40.1,29.67,West,260,0.0,0.0,91,0.00,,,0.00,Wunderground v.1.13,2013-02-27 12:48:00,
2013-02-27 07:54:00,42.5,40.1,29.67,West,260,0.0,0.0,91,0.00,,,0.00,Wunderground v.1.13,2013-02-27 12:54:00,
2013-02-27 08:00:00,42.6,40.2,29.67,WSW,258,0.0,0.0,91,0.00,,,0.00,Wunderground v.1.13,2013-02-27 13:00:00,
2013-02-27 08:06:00,42.8,40.4,29.68,WSW,258,0.0,0.0,91,0.00,,,0.00,Wunderground v.1.13,2013-02-27 13:06:00,
2013-02-27 08:12:00,42.8,40.4,29.68,WSW,258,0.0,0.0,91,0.00,,,0.00,Wunderground v.1.13,2013-02-27 13:12:00,
2013-02-27 08:18:00,43.1,40.7,29.69,SSW,209,0.0,0.0,91,0.00,,,0.00,Wunderground v.1.13,2013-02-27 13:18:00,
2013-02-27 08:24:00,43.8,41.1,29.69,WSW,243,1.0,1.0,90,0.00,,,0.00,Wunderground v.1.13,2013-02-27 13:24:00,
2013-02-27 08:30:00,43.9,40.9,29.69,SW,232,1.0,1.0,89,0.00,,,0.00,Wunderground v.1.13,2013-02-27 13:30:00,
2013-02-27 08:36:00,44.1,40.8,29.70,SW,236,1.0,7.0,88,0.00,,,0.00,Wunderground v.1.13,2013-02-27 13:36:00,
2013-02-27 08:42:00,44.3,40.4,29.70,WNW,285,2.0,3.0,86,0.00,,,0.00,Wunderground v.1.13,2013-02-27 13:42:00,
2013-02-27 08:48:00,44.5,40.3,29.71,SW,220,2.0,2.0,85,0.00,,,0.00,Wunderground v.1.13,2013-02-27 13:48:00,
2013-02-27 08:54:00,44.8,40.3,29.71,West,277,1.0,2.0,84,0.00,,,0.00,Wunderground v.1.13,2013-02-27 13:54:00,
2013-02-27 09:00:00,45.1,40.6,29.71,West,261,1.0,1.0,84,0.00,,,0.00,Wunderground v.1.13,2013-02-27 14:00:00,
2013-02-27 09:06:00,45.5,40.9,29.71,West,261,1.0,1.0,84,0.00,,,0.00,Wunderground v.1.13,2013-02-27 14:06:00,
2013-02-27 09:12:00,45.8,40.6,29.71,West,270,0.0,3.0,82,0.00,,,0.00,Wunderground v.1.13,2013-02-27 14:12:00,
2013-02-27 09:18:00,46.0,40.8,29.71,SSW,210,1.0,1.0,82,0.00,,,0.00,Wunderground v.1.13,2013-02-27 14:18:00,
2013-02-27 09:24:00,46.2,40.4,29.71,WSW,257,2.0,2.0,80,0.00,,,0.00,Wunderground v.1.13,2013-02-27 14:24:00,
2013-02-27 09:30:00,46.5,40.0,29.71,WNW,282,1.0,1.0,78,0.00,,,0.00,Wunderground v.1.13,2013-02-27 14:30:00,
2013-02-27 09:36:00,47.0,40.2,29.71,WSW,247,1.0,1.0,77,0.00,,,0.00,Wunderground v.1.13,2013-02-27 14:36:00,
2013-02-27 09:42:00,47.3,39.8,29.71,West,278,1.0,1.0,75,0.00,,,0.00,Wunderground v.1.13,2013-02-27 14:42:00,
2013-02-27 09:48:00,47.9,40.7,29.71,North,354,1.0,1.0,76,0.00,,,0.00,Wunderground v.1.13,2013-02-27 14:48:00,
2013-02-27 09:54:00,48.5,40.2,29.71,WSW,243,0.0,4.0,73,0.00,,,0.00,Wunderground v.1.13,2013-02-27 14:54:00,
2013-02-27 10:00:00,48.6,39.6,29.70,NNW,346,2.0,2.0,71,0.00,,,0.00,Wunderground v.1.13,2013-02-27 15:00:00,
2013-02-27 10:06:00,48.9,40.3,29.70,NNW,339,2.0,3.0,72,0.00,,,0.00,Wunderground v.1.13,2013-02-27 15:06:00,
2013-02-27 10:12:00,49.1,39.7,29.70,SSW,208,2.0,2.0,70,0.00,,,0.00,Wunderground v.1.13,2013-02-27 15:12:00,
2013-02-27 10:18:00,49.4,39.7,29.71,WSW,248,1.0,1.0,69,0.00,,,0.00,Wunderground v.1.13,2013-02-27 15:18:00,
2013-02-27 10:24:00,49.5,39.4,29.71,West,272,1.0,1.0,68,0.00,,,0.00,Wunderground v.1.13,2013-02-27 15:24:00,
2013-02-27 10:30:00,50.2,38.9,29.71,WNW,291,1.0,2.0,65,0.00,,,0.00,Wunderground v.1.13,2013-02-27 15:30:00,
2013-02-27 10:36:00,50.2,37.7,29.71,North,354,2.0,2.0,62,0.00,,,0.00,Wunderground v.1.13,2013-02-27 15:36:00,
2013-02-27 10:42:00,50.8,39.8,29.71,NNW,335,2.0,2.0,66,0.00,,,0.00,Wunderground v.1.13,2013-02-27 15:42:00,
2013-02-27 10:48:00,51.3,37.9,29.72,NW,308,2.0,2.0,60,0.00,,,0.00,Wunderground v.1.13,2013-02-27 15:48:00,
2013-02-27 10:54:00,51.9,39.3,29.72,SW,236,2.0,7.0,62,0.00,,,0.00,Wunderground v.1.13,2013-02-27 15:54:00,
2013-02-27 11:00:00,52.0,38.1,29.72,NW,309,2.0,2.0,59,0.00,,,0.00,Wunderground v.1.13,2013-02-27 16:00:00,
2013-02-27 11:06:00,52.9,37.6,29.72,West,261,2.0,2.0,56,0.00,,,0.00,Wunderground v.1.13,2013-02-27 16:06:00,
2013-02-27 11:12:00,52.8,38.0,29.72,West,260,2.0,2.0,57,0.00,,,0.00,Wunderground v.1.13,2013-02-27 16:12:00,
2013-02-27 11:18:00,53.2,36.5,29.72,West,263,2.0,2.0,53,0.00,,,0.00,Wunderground v.1.13,2013-02-27 16:18:00,
2013-02-27 11:24:00,53.5,37.3,29.72,West,267,3.0,3.0,54,0.00,,,0.00,Wunderground v.1.13,2013-02-27 16:24:00,
2013-02-27 11:30:00,53.9,35.7,29.72,WNW,292,2.0,2.0,50,0.00,,,0.00,Wunderground v.1.13,2013-02-27 16:30:00,
2013-02-27 11:36:00,55.0,37.7,29.72,West,270,1.0,1.0,52,0.00,,,0.00,Wunderground v.1.13,2013-02-27 16:36:00,
2013-02-27 11:42:00,54.2,37.4,29.72,SW,217,1.0,1.0,53,0.00,,,0.00,Wunderground v.1.13,2013-02-27 16:42:00,
2013-02-27 11:48:00,54.7,36.9,29.71,SSW,213,2.0,2.0,51,0.00,,,0.00,Wunderground v.1.13,2013-02-27 16:48:00,
2013-02-27 11:54:00,55.0,37.2,29.71,South,181,2.0,2.0,51,0.00,,,0.00,Wunderground v.1.13,2013-02-27 16:54:00,
2013-02-27 12:00:00,55.4,35.5,29.71,SSW,192,2.0,2.0,47,0.00,,,0.00,Wunderground v.1.13,2013-02-27 17:00:00,
2013-02-27 12:06:00,55.1,35.2,29.70,SSW,196,3.0,3.0,47,0.00,,,0.00,Wunderground v.1.13,2013-02-27 17:06:00,
2013-02-27 12:12:00,55.7,35.8,29.70,WSW,254,2.0,2.0,47,0.00,,,0.00,Wunderground v.1.13,2013-02-27 17:12:00,
2013-02-27 12:18:00,56.3,37.4,29.69,NNW,339,1.0,2.0,49,0.00,,,0.00,Wunderground v.1.13,2013-02-27 17:18:00,
2013-02-27 12:24:00,56.5,36.5,29.69,SW,236,2.0,3.0,47,0.00,,,0.00,Wunderground v.1.13,2013-02-27 17:24:00,
2013-02-27 12:30:00,56.7,35.0,29.69,WNW,291,1.0,4.0,44,0.00,,,0.00,Wunderground v.1.13,2013-02-27 17:30:00,
2013-02-27 12:36:00,56.3,34.1,29.69,WSW,250,2.0,3.0,43,0.00,,,0.00,Wunderground v.1.13,2013-02-27 17:36:00,
2013-02-27 12:42:00,57.0,34.7,29.69,NW,306,2.0,3.0,43,0.00,,,0.00,Wunderground v.1.13,2013-02-27 17:42:00,
2013-02-27 12:48:00,57.2,33.7,29.70,West,263,2.0,3.0,41,0.00,,,0.00,Wunderground v.1.13,2013-02-27 17:48:00,
2013-02-27 12:54:00,57.5,34.6,29.70,West,281,2.0,5.0,42,0.00,,,0.00,Wunderground v.1.13,2013-02-27 17:54:00,
2013-02-27 13:00:00,57.8,35.4,29.70,South,176,2.0,5.0,43,0.00,,,0.00,Wunderground v.1.13,2013-02-27 18:00:00,
2013-02-27 13:06:00,57.5,34.6,29.68,North,352,3.0,4.0,42,0.00,,,0.00,Wunderground v.1.13,2013-02-27 18:06:00,
2013-02-27 13:12:00,57.6,35.2,29.68,SW,229,3.0,3.0,43,0.00,,,0.00,Wunderground v.1.13,2013-02-27 18:12:00,
2013-02-27 13:18:00,57.6,34.7,29.67,West,264,2.0,2.0,42,0.00,,,0.00,Wunderground v.1.13,2013-02-27 18:18:00,
2013-02-27 13:24:00,58.1,36.9,29.67,West,281,2.0,2.0,45,0.00,,,0.00,Wunderground v.1.13,2013-02-27 18:24:00,
2013-02-27 13:30:00,57.6,32.8,29.67,South,174,3.0,3.0,39,0.00,,,0.00,Wunderground v.1.13,2013-02-27 18:30:00,
2013-02-27 13:36:00,58.7,36.8,29.67,West,260,1.0,2.0,44,0.00,,,0.00,Wunderground v.1.13,2013-02-27 18:36:00,
2013-02-27 13:42:00,58.4,34.2,29.67,SSW,206,1.0,2.0,40,0.00,,,0.00,Wunderground v.1.13,2013-02-27 18:42:00,
2013-02-27 13:48:00,58.6,36.2,29.66,WSW,251,2.0,2.0,43,0.00,,,0.00,Wunderground v.1.13,2013-02-27 18:48:00,
2013-02-27 13:54:00,58.9,34.6,29.66,WSW,254,1.0,1.0,40,0.00,,,0.00,Wunderground v.1.13,2013-02-27 18:54:00,
2013-02-27 14:00:00,59.8,36.0,29.67,NNW,335,1.0,1.0,41,0.00,,,0.00,Wunderground v.1.13,2013-02-27 19:00:00,
2013-02-27 14:06:00,59.8,36.0,29.67,NW,325,1.0,3.0,41,0.00,,,0.00,Wunderground v.1.13,2013-02-27 19:06:00,
2013-02-27 14:12:00,59.8,36.0,29.67,SW,232,2.0,2.0,41,0.00,,,0.00,Wunderground v.1.13,2013-02-27 19:12:00,
2013-02-27 14:18:00,59.5,35.1,29.67,WSW,248,2.0,3.0,40,0.00,,,0.00,Wunderground v.1.13,2013-02-27 19:18:00,
2013-02-27 14:24:00,59.2,34.2,29.67,NW,319,2.0,3.0,39,0.00,,,0.00,Wunderground v.1.13,2013-02-27 19:24:00,
2013-02-27 14:30:00,59.6,34.6,29.67,NW,312,3.0,3.0,39,0.00,,,0.00,Wunderground v.1.13,2013-02-27 19:30:00,
2013-02-27 14:36:00,59.9,35.5,29.66,WNW,301,3.0,3.0,40,0.00,,,0.00,Wunderground v.1.13,2013-02-27 19:36:00,
2013-02-27 14:42:00,59.2,35.5,29.66,WNW,295,2.0,2.0,41,0.00,,,0.00,Wunderground v.1.13,2013-02-27 19:42:00,
2013-02-27 14:48:00,59.6,35.2,29.66,SSW,203,2.0,5.0,40,0.00,,,0.00,Wunderground v.1.13,2013-02-27 19:48:00,
2013-02-27 14:54:00,59.9,37.3,29.66,WSW,243,2.0,2.0,43,0.00,,,0.00,Wunderground v.1.13,2013-02-27 19:54:00,
2013-02-27 15:00:00,59.8,34.8,29.66,North,0,2.0,7.0,39,0.00,,,0.00,Wunderground v.1.13,2013-02-27 20:00:00,
2013-02-27 15:06:00,60.2,36.4,29.65,WSW,253,2.0,3.0,41,0.00,,,0.00,Wunderground v.1.13,2013-02-27 20:06:00,
2013-02-27 15:12:00,59.9,35.5,29.65,WNW,289,2.0,2.0,40,0.00,,,0.00,Wunderground v.1.13,2013-02-27 20:12:00,
2013-02-27 15:18:00,60.4,35.3,29.65,WNW,285,2.0,2.0,39,0.00,,,0.00,Wunderground v.1.13,2013-02-27 20:18:00,
2013-02-27 15:24:00,60.2,36.4,29.65,South,188,1.0,1.0,41,0.00,,,0.00,Wunderground v.1.13,2013-02-27 20:24:00,
2013-02-27 15:30:00,60.4,35.9,29.65,West,260,1.0,1.0,40,0.00,,,0.00,Wunderground v.1.13,2013-02-27 20:30:00,
2013-02-27 15:36:00,60.4,35.3,29.65,WSW,239,2.0,2.0,39,0.00,,,0.00,Wunderground v.1.13,2013-02-27 20:36:00,
2013-02-27 15:42:00,60.7,36.2,29.65,West,271,2.0,2.0,40,0.00,,,0.00,Wunderground v.1.13,2013-02-27 20:42:00,
2013-02-27 15:48:00,60.4,35.3,29.65,WSW,256,2.0,2.0,39,0.00,,,0.00,Wunderground v.1.13,2013-02-27 20:48:00,
2013-02-27 15:54:00,60.1,37.5,29.65,WNW,284,2.0,2.0,43,0.00,,,0.00,Wunderground v.1.13,2013-02-27 20:54:00,
2013-02-27 16:00:00,60.2,37.0,29.65,NW,325,1.0,1.0,42,0.00,,,0.00,Wunderground v.1.13,2013-02-27 21:00:00,
2013-02-27 16:06:00,59.8,37.2,29.65,SW,217,1.0,1.0,43,0.00,,,0.00,Wunderground v.1.13,2013-02-27 21:06:00,
2013-02-27 16:12:00,59.6,36.5,29.65,West,281,2.0,2.0,42,0.00,,,0.00,Wunderground v.1.13,2013-02-27 21:12:00,
2013-02-27 16:18:00,59.8,36.0,29.65,West,281,1.0,1.0,41,0.00,,,0.00,Wunderground v.1.13,2013-02-27 21:18:00,
2013-02-27 16:24:00,59.5,36.4,29.65,NE,51,1.0,2.0,42,0.00,,,0.00,Wunderground v.1.13,2013-02-27 21:24:00,
2013-02-27 16:30:00,59.2,36.7,29.65,SW,229,2.0,2.0,43,0.00,,,0.00,Wunderground v.1.13,2013-02-27 21:30:00,
2013-02-27 16:36:00,59.0,37.1,29.64,WNW,288,2.0,2.0,44,0.00,,,0.00,Wunderground v.1.13,2013-02-27 21:36:00,
2013-02-27 16:42:00,58.7,37.4,29.64,SSW,210,1.0,1.0,45,0.00,,,0.00,Wunderground v.1.13,2013-02-27 21:42:00,
2013-02-27 16:48:00,58.7,36.8,29.64,WNW,282,1.0,2.0,44,0.00,,,0.00,Wunderground v.1.13,2013-02-27 21:48:00,
2013-02-27 16:54:00,58.7,37.4,29.64,SW,233,1.0,4.0,45,0.00,,,0.00,Wunderground v.1.13,2013-02-27 21:54:00,
2013-02-27 17:00:00,58.6,37.3,29.64,WSW,240,1.0,1.0,45,0.00,,,0.00,Wunderground v.1.13,2013-02-27 22:00:00,
2013-02-27 17:06:00,58.4,37.1,29.64,SW,229,1.0,1.0,45,0.00,,,0.00,Wunderground v.1.13,2013-02-27 22:06:00,
2013-02-27 17:12:00,58.3,38.1,29.64,SSW,208,1.0,1.0,47,0.00,,,0.00,Wunderground v.1.13,2013-02-27 22:12:00,
2013-02-27 17:18:00,58.0,37.9,29.65,North,0,0.0,0.0,47,0.00,,,0.00,Wunderground v.1.13,2013-02-27 22:18:00,
2013-02-27 17:24:00,57.6,38.6,29.65,North,0,0.0,0.0,49,0.00,,,0.00,Wunderground v.1.13,2013-02-27 22:24:00,
2013-02-27 17:30:00,57.3,37.8,29.65,West,261,0.0,3.0,48,0.00,,,0.00,Wunderground v.1.13,2013-02-27 22:30:00,
2013-02-27 17:36:00,57.3,37.8,29.65,West,275,1.0,1.0,48,0.00,,,0.00,Wunderground v.1.13,2013-02-27 22:36:00,
2013-02-27 17:42:00,57.0,38.0,29.65,West,275,0.0,0.0,49,0.00,,,0.00,Wunderground v.1.13,2013-02-27 22:42:00,
2013-02-27 17:48:00,56.6,38.7,29.65,West,261,0.0,0.0,51,0.00,,,0.00,Wunderground v.1.13,2013-02-27 22:48:00,
2013-02-27 17:54:00,56.3,38.4,29.65,SW,229,0.0,0.0,51,0.00,,,0.00,Wunderground v.1.13,2013-02-27 22:54:00,
2013-02-27 18:00:00,55.7,38.8,29.65,WSW,237,1.0,1.0,53,0.00,,,0.00,Wunderground v.1.13,2013-02-27 23:00:00,
2013-02-27 18:06:00,55.6,39.2,29.66,SSW,195,1.0,1.0,54,0.00,,,0.00,Wunderground v.1.13,2013-02-27 23:06:00,
2013-02-27 18:12:00,54.8,39.4,29.66,WSW,246,1.0,1.0,56,0.00,,,0.00,Wunderground v.1.13,2013-02-27 23:12:00,
2013-02-27 18:18:00,54.8,39.4,29.67,NW,312,0.0,0.0,56,0.00,,,0.00,Wunderground v.1.13,2013-02-27 23:18:00,
2013-02-27 18:24:00,54.8,39.4,29.67,WNW,285,0.0,0.0,56,0.00,,,0.00,Wunderground v.1.13,2013-02-27 23:24:00,
2013-02-27 18:30:00,54.1,39.2,29.67,WNW,285,0.0,0.0,57,0.00,,,0.00,Wunderground v.1.13,2013-02-27 23:30:00,
2013-02-27 18:36:00,53.5,39.5,29.67,WNW,285,0.0,0.0,59,0.00,,,0.00,Wunderground v.1.13,2013-02-27 23:36:00,
2013-02-27 18:42:00,52.9,39.4,29.67,WNW,285,0.0,0.0,60,0.00,,,0.00,Wunderground v.1.13,2013-02-27 23:42:00,
2013-02-27 18:48:00,52.8,39.7,29.67,WNW,285,0.0,0.0,61,0.00,,,0.00,Wunderground v.1.13,2013-02-27 23:48:00,
2013-02-27 18:54:00,52.3,39.2,29.67,WNW,285,0.0,0.0,61,0.00,,,0.00,Wunderground v.1.13,2013-02-27 23:54:00,
2013-02-27 19:00:00,51.9,39.3,29.67,WNW,285,0.0,0.0,62,0.00,,,0.00,Wunderground v.1.13,2013-02-28 00:00:00,
2013-02-27 19:06:00,51.6,39.4,29.67,WNW,285,0.0,0.0,63,0.00,,,0.00,Wunderground v.1.13,2013-02-28 00:06:00,
2013-02-27 19:12:00,51.4,39.2,29.67,WNW,285,0.0,0.0,63,0.00,,,0.00,Wunderground v.1.13,2013-02-28 00:12:00,
2013-02-27 19:18:00,50.8,39.8,29.67,WNW,285,0.0,0.0,66,0.00,,,0.00,Wunderground v.1.13,2013-02-28 00:18:00,
2013-02-27 19:24:00,50.1,39.6,29.67,WNW,285,0.0,0.0,67,0.00,,,0.00,Wunderground v.1.13,2013-02-28 00:24:00,
2013-02-27 19:30:00,49.9,39.8,29.67,WNW,285,0.0,0.0,68,0.00,,,0.00,Wunderground v.1.13,2013-02-28 00:30:00,
2013-02-27 19:36:00,48.9,40.3,29.67,WNW,285,0.0,0.0,72,0.00,,,0.00,Wunderground v.1.13,2013-02-28 00:36:00,
2013-02-27 19:42:00,49.1,39.4,29.67,WNW,285,0.0,0.0,69,0.00,,,0.00,Wunderground v.1.13,2013-02-28 00:42:00,
2013-02-27 19:48:00,48.8,39.8,29.67,WNW,285,0.0,0.0,71,0.00,,,0.00,Wunderground v.1.13,2013-02-28 00:48:00,
2013-02-27 19:54:00,48.5,39.2,29.67,WNW,285,0.0,0.0,70,0.00,,,0.00,Wunderground v.1.13,2013-02-28 00:54:00,
2013-02-27 20:00:00,48.0,40.1,29.67,WNW,285,0.0,0.0,74,0.00,,,0.00,Wunderground v.1.13,2013-02-28 01:00:00,
2013-02-27 20:06:00,47.4,39.2,29.67,WNW,285,0.0,0.0,73,0.00,,,0.00,Wunderground v.1.13,2013-02-28 01:06:00,
2013-02-27 20:12:00,46.8,39.3,29.67,WNW,285,0.0,0.0,75,0.00,,,0.00,Wunderground v.1.13,2013-02-28 01:12:00,
2013-02-27 20:18:00,46.7,39.2,29.67,WNW,285,0.0,0.0,75,0.00,,,0.00,Wunderground v.1.13,2013-02-28 01:18:00,
2013-02-27 20:24:00,46.7,39.2,29.67,WNW,285,0.0,0.0,75,0.00,,,0.00,Wunderground v.1.13,2013-02-28 01:24:00,
2013-02-27 20:30:00,46.7,39.2,29.67,WNW,285,0.0,0.0,75,0.00,,,0.00,Wunderground v.1.13,2013-02-28 01:30:00,
2013-02-27 20:36:00,46.5,39.0,29.67,WNW,285,0.0,0.0,75,0.00,,,0.00,Wunderground v.1.13,2013-02-28 01:36:00,
2013-02-27 20:42:00,46.4,38.9,29.67,WNW,285,0.0,0.0,75,0.00,,,0.00,Wunderground v.1.13,2013-02-28 01:42:00,
2013-02-27 20:48:00,46.2,38.4,29.67,WNW,285,0.0,0.0,74,0.00,,,0.00,Wunderground v.1.13,2013-02-28 01:48:00,
2013-02-27 20:54:00,46.1,38.6,29.67,WNW,285,0.0,0.0,75,0.00,,,0.00,Wunderground v.1.13,2013-02-28 01:54:00,
2013-02-27 21:00:00,45.8,38.7,29.67,WNW,285,0.0,0.0,76,0.00,,,0.00,Wunderground v.1.13,2013-02-28 02:00:00,
2013-02-27 21:06:00,45.7,38.9,29.67,WNW,285,0.0,0.0,77,0.00,,,0.00,Wunderground v.1.13,2013-02-28 02:06:00,
2013-02-27 21:12:00,45.4,38.6,29.67,WNW,285,0.0,0.0,77,0.00,,,0.00,Wunderground v.1.13,2013-02-28 02:12:00,
2013-02-27 21:18:00,44.9,38.1,29.66,WNW,285,0.0,0.0,77,0.00,,,0.00,Wunderground v.1.13,2013-02-28 02:18:00,
2013-02-27 21:24:00,44.6,38.2,29.66,WNW,285,0.0,0.0,78,0.00,,,0.00,Wunderground v.1.13,2013-02-28 02:24:00,
2013-02-27 21:30:00,44.3,38.2,29.66,WNW,285,0.0,0.0,79,0.00,,,0.00,Wunderground v.1.13,2013-02-28 02:30:00,
2013-02-27 21:36:00,44.1,38.3,29.67,WNW,285,0.0,0.0,80,0.00,,,0.00,Wunderground v.1.13,2013-02-28 02:36:00,
2013-02-27 21:42:00,43.9,38.1,29.67,WNW,285,0.0,0.0,80,0.00,,,0.00,Wunderground v.1.13,2013-02-28 02:42:00,
2013-02-27 21:48:00,43.6,37.8,29.67,WNW,285,0.0,0.0,80,0.00,,,0.00,Wunderground v.1.13,2013-02-28 02:48:00,
2013-02-27 21:54:00,43.5,37.7,29.67,WNW,285,0.0,0.0,80,0.00,,,0.00,Wunderground v.1.13,2013-02-28 02:54:00,
2013-02-27 22:00:00,43.2,37.4,29.67,WNW,285,0.0,0.0,80,0.00,,,0.00,Wunderground v.1.13,2013-02-28 03:00:00,
2013-02-27 22:06:00,43.1,38.0,29.67,WNW,285,0.0,0.0,82,0.00,,,0.00,Wunderground v.1.13,2013-02-28 03:06:00,
2013-02-27 22:12:00,42.9,37.8,29.67,WNW,285,0.0,0.0,82,0.00,,,0.00,Wunderground v.1.13,2013-02-28 03:12:00,
2013-02-27 22:18:00,42.6,37.5,29.67,WNW,285,0.0,0.0,82,0.00,,,0.00,Wunderground v.1.13,2013-02-28 03:18:00,
2013-02-27 22:24:00,42.5,37.4,29.67,WNW,285,0.0,0.0,82,0.00,,,0.00,Wunderground v.1.13,2013-02-28 03:24:00,
2013-02-27 22:30:00,42.2,37.1,29.67,WNW,285,0.0,0.0,82,0.00,,,0.00,Wunderground v.1.13,2013-02-28 03:30:00,
2013-02-27 22:36:00,42.1,37.0,29.67,WNW,285,0.0,0.0,82,0.00,,,0.00,Wunderground v.1.13,2013-02-28 03:36:00,
2013-02-27 22:42:00,41.8,36.7,29.67,WNW,285,0.0,0.0,82,0.00,,,0.00,Wunderground v.1.13,2013-02-28 03:42:00,
2013-02-27 22:48:00,41.6,36.8,29.66,WNW,285,0.0,0.0,83,0.00,,,0.00,Wunderground v.1.13,2013-02-28 03:48:00,
2013-02-27 22:54:00,41.5,36.4,29.66,WNW,285,0.0,0.0,82,0.00,,,0.00,Wunderground v.1.13,2013-02-28 03:54:00,
2013-02-27 23:00:00,41.2,36.4,29.66,WNW,285,0.0,0.0,83,0.00,,,0.00,Wunderground v.1.13,2013-02-28 04:00:00,
2013-02-27 23:06:00,41.1,36.6,29.66,WNW,285,0.0,0.0,84,0.00,,,0.00,Wunderground v.1.13,2013-02-28 04:06:00,
2013-02-27 23:12:00,40.9,36.7,29.66,WNW,285,0.0,0.0,85,0.00,,,0.00,Wunderground v.1.13,2013-02-28 04:12:00,
2013-02-27 23:18:00,40.6,36.4,29.65,WNW,285,0.0,0.0,85,0.00,,,0.00,Wunderground v.1.13,2013-02-28 04:18:00,
2013-02-27 23:24:00,40.5,36.0,29.65,WNW,285,0.0,0.0,84,0.00,,,0.00,Wunderground v.1.13,2013-02-28 04:24:00,
2013-02-27 23:30:00,40.3,36.1,29.65,WNW,285,0.0,0.0,85,0.00,,,0.00,Wunderground v.1.13,2013-02-28 04:30:00,
2013-02-27 23:36:00,40.1,36.2,29.64,WNW,285,0.0,0.0,86,0.00,,,0.00,Wunderground v.1.13,2013-02-28 04:36:00,
2013-02-27 23:42:00,39.9,36.1,29.64,WNW,285,0.0,0.0,86,0.00,,,0.00,Wunderground v.1.13,2013-02-28 04:42:00,
2013-02-27 23:48:00,39.8,36.0,29.64,WNW,285,0.0,0.0,86,0.00,,,0.00,Wunderground v.1.13,2013-02-28 04:48:00,
2013-02-27 23:54:00,39.6,36.0,29.64,WNW,285,0.0,0.0,87,0.00,,,0.00,Wunderground v.1.13,2013-02-28 04:54:00,